createdAt,value
2018-11-03T00:01:04.870Z,74.90
2018-11-03T00:03:32.337Z,74.90
2018-11-03T00:05:59.841Z,74.80
2018-11-03T00:08:27.366Z,74.80
2018-11-03T00:10:54.943Z,74.80
2018-11-03T00:13:22.827Z,74.90
2018-11-03T00:15:50.286Z,74.80
2018-11-03T00:18:17.767Z,74.90
2018-11-03T00:20:45.244Z,75.10
2018-11-03T00:23:12.678Z,75.40
2018-11-03T00:25:40.183Z,75.30
2018-11-03T00:28:07.763Z,75.80
2018-11-03T00:30:35.302Z,75.20
2018-11-03T00:33:02.775Z,75.70
2018-11-03T00:35:30.916Z,75.50
2018-11-03T00:37:58.402Z,75.40
2018-11-03T00:40:25.911Z,75.80
2018-11-03T00:42:53.553Z,75.60
2018-11-03T00:45:20.822Z,75.60
2018-11-03T00:47:49.288Z,75.70
2018-11-03T00:50:16.792Z,76.00
2018-11-03T00:52:44.475Z,75.90
2018-11-03T00:55:12.417Z,76.20
2018-11-03T00:57:40.658Z,76.30
2018-11-03T01:00:10.736Z,76.20
2018-11-03T01:02:39.026Z,76.20
2018-11-03T01:05:07.609Z,76.20
2018-11-03T01:07:35.476Z,76.30
2018-11-03T01:10:03.058Z,75.90
2018-11-03T01:12:30.585Z,76.60
2018-11-03T01:14:58.132Z,76.60
2018-11-03T01:17:25.625Z,76.30
2018-11-03T01:19:53.102Z,76.50
2018-11-03T01:22:20.615Z,76.30
2018-11-03T01:24:48.179Z,76.50
2018-11-03T01:27:15.645Z,76.40
2018-11-03T01:29:43.159Z,76.40
2018-11-03T01:32:10.886Z,76.30
2018-11-03T01:34:38.441Z,76.20
2018-11-03T01:37:05.947Z,76.20
2018-11-03T01:39:33.435Z,76.40
2018-11-03T01:42:00.863Z,76.50
2018-11-03T01:44:28.383Z,76.40
2018-11-03T01:46:56.393Z,76.50
2018-11-03T01:49:23.891Z,76.40
2018-11-03T01:51:51.311Z,76.50
2018-11-03T01:54:18.854Z,76.70
2018-11-03T01:56:46.307Z,76.60
2018-11-03T01:59:13.935Z,76.90
2018-11-03T02:01:41.379Z,76.40
2018-11-03T02:04:08.920Z,76.40
2018-11-03T02:06:36.391Z,76.50
2018-11-03T02:09:06.054Z,76.70
2018-11-03T02:11:33.528Z,76.60
2018-11-03T02:14:00.987Z,76.50
2018-11-03T02:16:28.490Z,76.30
2018-11-03T02:18:56.010Z,77.00
2018-11-03T02:21:23.450Z,76.70
2018-11-03T02:23:50.882Z,76.90
2018-11-03T02:26:18.358Z,76.80
2018-11-03T02:28:45.888Z,77.00
2018-11-03T02:31:13.366Z,77.00
2018-11-03T02:33:41.180Z,77.20
2018-11-03T02:36:08.878Z,77.50
2018-11-03T02:38:37.028Z,77.20
2018-11-03T02:41:04.540Z,77.10
2018-11-03T02:43:32.004Z,77.20
2018-11-03T02:45:59.529Z,77.10
2018-11-03T02:48:27.011Z,77.00
2018-11-03T02:50:54.455Z,76.90
2018-11-03T02:53:21.908Z,77.00
2018-11-03T02:55:49.454Z,77.00
2018-11-03T02:58:17.256Z,77.30
2018-11-03T03:00:44.715Z,77.30
2018-11-03T03:03:12.283Z,77.20
2018-11-03T03:05:39.793Z,77.40
2018-11-03T03:08:07.292Z,77.60
2018-11-03T03:10:34.743Z,77.60
2018-11-03T03:13:02.458Z,77.40
2018-11-03T03:15:30.011Z,77.50
2018-11-03T03:17:57.501Z,77.80
2018-11-03T03:20:25.054Z,77.40
2018-11-03T03:22:52.535Z,77.70
2018-11-03T03:25:20.359Z,77.70
2018-11-03T03:27:48.451Z,77.40
2018-11-03T03:30:16.057Z,77.20
2018-11-03T03:32:43.540Z,77.40
2018-11-03T03:35:11.027Z,77.50
2018-11-03T03:37:38.467Z,77.50
2018-11-03T03:40:06.711Z,77.20
2018-11-03T03:42:34.162Z,77.40
2018-11-03T03:45:01.636Z,77.20
2018-11-03T03:47:29.631Z,77.50
2018-11-03T03:49:57.092Z,77.40
2018-11-03T03:52:24.598Z,77.30
2018-11-03T03:54:52.076Z,77.10
2018-11-03T03:57:19.585Z,77.40
2018-11-03T03:59:47.114Z,77.30
2018-11-03T04:02:14.643Z,77.00
2018-11-03T04:04:42.139Z,76.90
2018-11-03T04:07:09.677Z,77.00
2018-11-03T04:09:37.188Z,77.20
2018-11-03T04:12:04.777Z,77.00
2018-11-03T04:14:32.946Z,77.10
2018-11-03T04:17:00.435Z,77.20
2018-11-03T04:19:27.862Z,77.40
2018-11-03T04:21:55.499Z,77.30
2018-11-03T04:24:22.934Z,77.10
2018-11-03T04:26:50.534Z,77.00
2018-11-03T04:29:18.048Z,77.20
2018-11-03T04:31:45.597Z,77.10
2018-11-03T04:34:13.054Z,76.90
2018-11-03T04:36:40.492Z,76.90
2018-11-03T04:39:07.955Z,76.80
2018-11-03T04:41:35.527Z,76.60
2018-11-03T04:44:03.094Z,77.00
2018-11-03T04:46:30.636Z,77.00
2018-11-03T04:49:00.219Z,76.70
2018-11-03T04:51:28.657Z,76.80
2018-11-03T04:53:56.257Z,76.60
2018-11-03T04:56:23.798Z,76.70
2018-11-03T04:58:51.256Z,76.70
2018-11-03T05:01:18.727Z,76.90
2018-11-03T05:03:46.288Z,76.60
2018-11-03T05:06:13.803Z,77.00
2018-11-03T05:08:41.315Z,77.10
2018-11-03T05:11:08.824Z,77.20
2018-11-03T05:13:36.345Z,76.90
2018-11-03T05:16:03.962Z,76.70
2018-11-03T05:18:31.484Z,76.80
2018-11-03T05:20:58.932Z,76.30
2018-11-03T05:23:26.445Z,76.70
2018-11-03T05:25:54.510Z,76.80
2018-11-03T05:28:21.957Z,77.50
2018-11-03T05:30:49.531Z,76.50
2018-11-03T05:33:16.998Z,76.70
2018-11-03T05:35:44.507Z,76.60
2018-11-03T05:38:12.031Z,76.70
2018-11-03T05:40:39.494Z,76.60
2018-11-03T05:43:07.007Z,76.80
2018-11-03T05:45:34.488Z,76.50
2018-11-03T05:48:01.923Z,76.40
2018-11-03T05:50:29.491Z,76.40
2018-11-03T05:52:56.926Z,77.00
2018-11-03T05:55:24.455Z,76.60
2018-11-03T05:57:52.011Z,76.00
2018-11-03T06:00:19.520Z,76.40
2018-11-03T06:02:47.006Z,76.20
2018-11-03T06:05:14.492Z,76.00
2018-11-03T06:07:42.007Z,76.20
2018-11-03T06:10:09.652Z,76.00
2018-11-03T06:12:37.267Z,76.20
2018-11-03T06:15:05.260Z,75.90
2018-11-03T06:17:32.806Z,75.80
2018-11-03T06:20:00.352Z,76.00
2018-11-03T06:22:27.966Z,76.30
2018-11-03T06:24:55.376Z,75.80
2018-11-03T06:27:22.955Z,76.40
2018-11-03T06:29:50.467Z,76.60
2018-11-03T06:32:18.013Z,76.50
2018-11-03T06:34:45.522Z,76.20
2018-11-03T06:37:13.159Z,76.20
2018-11-03T06:39:40.610Z,76.10
2018-11-03T06:42:08.194Z,75.80
2018-11-03T06:44:35.881Z,76.10
2018-11-03T06:47:03.385Z,76.90
2018-11-03T06:49:30.935Z,75.90
2018-11-03T06:51:58.546Z,75.90
2018-11-03T06:54:25.986Z,76.00
2018-11-03T06:56:53.515Z,75.70
2018-11-03T06:59:21.022Z,76.00
2018-11-03T07:04:24.554Z,75.50
2018-11-03T07:06:52.099Z,75.80
2018-11-03T07:09:20.374Z,76.20
2018-11-03T07:11:48.627Z,75.80
2018-11-03T07:14:16.930Z,76.00
2018-11-03T07:16:45.314Z,76.10
2018-11-03T07:19:13.026Z,76.00
2018-11-03T07:21:41.456Z,75.80
2018-11-03T07:24:09.019Z,75.20
2018-11-03T07:26:36.629Z,74.60
2018-11-03T07:29:06.192Z,73.80
2018-11-03T07:31:33.748Z,73.80
2018-11-03T07:34:02.073Z,73.50
2018-11-03T07:36:30.094Z,74.30
2018-11-03T07:38:57.913Z,74.70
2018-11-03T07:41:26.073Z,75.00
2018-11-03T07:43:53.606Z,75.20
2018-11-03T07:46:25.282Z,75.50
2018-11-03T07:48:53.176Z,75.60
2018-11-03T07:51:21.539Z,74.90
2018-11-03T07:53:49.517Z,75.70
2018-11-03T07:56:17.981Z,75.60
2018-11-03T07:58:45.673Z,76.30
2018-11-03T08:01:13.649Z,75.50
2018-11-03T08:03:41.875Z,75.70
2018-11-03T08:06:09.447Z,75.50
2018-11-03T08:08:38.057Z,75.60
2018-11-03T08:11:06.702Z,75.80
2018-11-03T08:13:35.259Z,76.00
2018-11-03T08:16:03.651Z,75.60
2018-11-03T08:18:31.525Z,75.80
2018-11-03T08:20:59.106Z,76.00
2018-11-03T08:23:27.171Z,75.90
2018-11-03T08:25:59.614Z,75.80
2018-11-03T08:28:27.407Z,75.60
2018-11-03T08:31:06.940Z,75.60
2018-11-03T08:33:34.939Z,74.80
2018-11-03T08:36:02.586Z,74.40
2018-11-03T08:38:31.448Z,74.40
2018-11-03T08:40:59.186Z,74.30
2018-11-03T08:43:26.718Z,73.80
2018-11-03T08:45:58.316Z,73.40
2018-11-03T08:48:30.092Z,73.00
2018-11-03T08:50:57.705Z,72.60
2018-11-03T08:53:25.430Z,72.40
2018-11-03T08:55:56.956Z,72.40
2018-11-03T08:58:25.563Z,71.80
2018-11-03T09:00:58.512Z,71.20
2018-11-03T09:03:26.247Z,71.10
2018-11-03T09:05:53.974Z,70.50
2018-11-03T09:08:21.694Z,70.50
2018-11-03T09:10:49.976Z,70.40
2018-11-03T09:13:25.305Z,70.10
2018-11-03T09:15:52.939Z,69.90
2018-11-03T09:18:23.658Z,69.40
2018-11-03T09:20:51.513Z,69.30
2018-11-03T09:23:21.278Z,68.90
2018-11-03T09:25:49.570Z,68.80
2018-11-03T09:28:17.518Z,69.30
2018-11-03T09:30:45.160Z,69.20
2018-11-03T09:33:12.712Z,68.90
2018-11-03T09:35:40.498Z,68.70
2018-11-03T09:38:08.116Z,68.50
2018-11-03T09:40:36.167Z,68.70
2018-11-03T09:43:08.274Z,68.70
2018-11-03T09:45:40.328Z,67.60
2018-11-03T09:48:09.041Z,67.60
2018-11-03T09:50:38.007Z,66.70
2018-11-03T09:53:06.184Z,66.90
2018-11-03T09:55:34.429Z,66.90
2018-11-03T09:58:02.048Z,67.50
2018-11-03T10:00:30.047Z,67.00
2018-11-03T10:02:58.779Z,66.90
2018-11-03T10:05:26.372Z,66.10
2018-11-03T10:07:55.255Z,66.40
2018-11-03T10:10:23.164Z,66.20
2018-11-03T10:12:51.008Z,66.60
2018-11-03T10:15:19.658Z,66.00
2018-11-03T10:17:47.378Z,64.50
2018-11-03T10:20:15.531Z,64.70
2018-11-03T10:22:43.536Z,64.30
2018-11-03T10:25:17.449Z,64.80
2018-11-03T10:27:45.429Z,64.50
2018-11-03T10:30:14.702Z,64.00
2018-11-03T10:32:43.577Z,63.80
2018-11-03T10:35:14.403Z,63.80
2018-11-03T10:37:42.681Z,63.60
2018-11-03T10:40:12.571Z,64.30
2018-11-03T10:42:48.453Z,63.40
2018-11-03T10:45:16.391Z,63.50
2018-11-03T10:47:45.418Z,63.10
2018-11-03T10:50:16.032Z,63.20
2018-11-03T10:52:44.438Z,62.60
2018-11-03T10:55:16.117Z,62.50
2018-11-03T10:57:44.590Z,62.60
2018-11-03T11:00:20.321Z,62.50
2018-11-03T11:02:53.646Z,62.30
2018-11-03T11:05:27.139Z,62.70
2018-11-03T11:08:01.366Z,61.70
2018-11-03T11:10:34.643Z,61.80
2018-11-03T11:13:09.112Z,61.60
2018-11-03T11:15:36.662Z,61.50
2018-11-03T11:18:09.423Z,62.10
2018-11-03T11:20:38.133Z,61.20
2018-11-03T11:23:10.270Z,61.00
2018-11-03T11:25:38.961Z,61.00
2018-11-03T11:28:13.215Z,60.70
2018-11-03T11:30:42.767Z,60.70
2018-11-03T11:33:12.942Z,60.80
2018-11-03T11:35:45.058Z,60.50
2018-11-03T11:38:15.074Z,61.00
2018-11-03T11:40:44.069Z,60.60
2018-11-03T11:43:12.593Z,60.30
2018-11-03T11:45:42.290Z,60.20
2018-11-03T11:48:14.762Z,60.50
2018-11-03T11:50:42.357Z,59.60
2018-11-03T11:53:10.707Z,59.80
2018-11-03T11:55:38.274Z,59.90
2018-11-03T11:58:06.685Z,60.10
2018-11-03T12:00:35.598Z,59.60
2018-11-03T12:03:03.932Z,59.30
2018-11-03T12:05:31.633Z,59.30
2018-11-03T12:08:00.076Z,59.60
2018-11-03T12:10:27.684Z,59.20
2018-11-03T12:12:55.749Z,59.20
2018-11-03T12:15:29.768Z,59.10
2018-11-03T12:17:57.690Z,59.10
2018-11-03T12:20:26.677Z,58.70
2018-11-03T12:22:54.926Z,58.70
2018-11-03T12:25:22.569Z,58.80
2018-11-03T12:27:51.951Z,58.20
2018-11-03T12:30:20.094Z,58.40
2018-11-03T12:32:47.833Z,58.60
2018-11-03T12:35:15.527Z,58.50
2018-11-03T12:37:43.956Z,58.80
2018-11-03T12:40:13.907Z,58.40
2018-11-03T12:42:42.529Z,58.50
2018-11-03T12:45:11.236Z,58.60
2018-11-03T12:47:43.997Z,58.90
2018-11-03T12:50:16.641Z,58.70
2018-11-03T12:52:44.527Z,58.80
2018-11-03T12:55:13.239Z,58.90
2018-11-03T12:57:41.798Z,58.70
2018-11-03T13:00:11.835Z,58.60
2018-11-03T13:02:40.333Z,58.90
2018-11-03T13:05:13.352Z,58.60
2018-11-03T13:07:42.822Z,59.30
2018-11-03T13:10:10.810Z,58.70
2018-11-03T13:12:40.250Z,58.90
2018-11-03T13:15:10.310Z,58.60
2018-11-03T13:17:39.262Z,58.70
2018-11-03T13:20:12.403Z,58.70
2018-11-03T13:25:14.110Z,59.10
2018-11-03T13:27:42.475Z,58.80
2018-11-03T13:30:15.046Z,58.70
2018-11-03T13:32:43.330Z,58.80
2018-11-03T13:35:17.573Z,59.00
2018-11-03T13:37:46.858Z,58.80
2018-11-03T13:40:20.014Z,59.00
2018-11-03T13:42:48.014Z,59.00
2018-11-03T13:45:16.118Z,59.30
2018-11-03T13:47:44.454Z,59.10
2018-11-03T13:50:13.085Z,59.00
2018-11-03T13:52:44.076Z,59.20
2018-11-03T13:55:17.441Z,59.20
2018-11-03T13:57:45.769Z,59.30
2018-11-03T14:00:15.370Z,59.10
2018-11-03T14:02:47.669Z,59.20
2018-11-03T14:05:20.889Z,59.40
2018-11-03T14:07:48.761Z,59.40
2018-11-03T14:10:21.244Z,59.30
2018-11-03T14:12:49.933Z,59.60
2018-11-03T14:15:18.851Z,60.40
2018-11-03T14:17:46.437Z,59.50
2018-11-03T14:20:15.267Z,59.60
2018-11-03T14:22:44.582Z,59.50
2018-11-03T14:25:13.310Z,59.70
2018-11-03T14:27:44.273Z,59.30
2018-11-03T14:30:14.272Z,59.30
2018-11-03T14:32:42.262Z,59.40
2018-11-03T14:35:13.569Z,59.60
2018-11-03T14:37:45.583Z,59.90
2018-11-03T14:40:16.660Z,59.50
2018-11-03T14:42:45.242Z,59.80
2018-11-03T14:45:14.702Z,60.10
2018-11-03T14:47:46.747Z,59.90
2018-11-03T14:50:15.867Z,59.90
2018-11-03T14:52:44.448Z,60.40
2018-11-03T14:55:17.241Z,60.50
2018-11-03T14:57:45.634Z,60.50
2018-11-03T15:00:15.821Z,60.60
2018-11-03T15:02:44.041Z,61.00
2018-11-03T15:05:18.636Z,60.90
2018-11-03T15:07:52.130Z,61.30
2018-11-03T15:10:21.680Z,61.20
2018-11-03T15:12:51.563Z,61.30
2018-11-03T15:15:19.195Z,61.40
2018-11-03T15:17:46.670Z,61.90
2018-11-03T15:20:18.715Z,62.10
2018-11-03T15:22:46.830Z,61.50
2018-11-03T15:25:14.408Z,62.40
2018-11-03T15:27:54.042Z,62.50
2018-11-03T15:30:28.573Z,62.70
2018-11-03T15:32:56.128Z,62.90
2018-11-03T15:35:24.249Z,63.00
2018-11-03T15:37:51.970Z,63.00
2018-11-03T15:40:19.630Z,63.20
2018-11-03T15:42:47.656Z,63.20
2018-11-03T15:45:16.862Z,63.70
2018-11-03T15:47:46.064Z,64.00
2018-11-03T15:50:15.399Z,64.20
2018-11-03T15:52:43.618Z,64.40
2018-11-03T15:55:11.484Z,64.40
2018-11-03T15:57:39.717Z,64.80
2018-11-03T16:00:10.321Z,64.90
2018-11-03T16:02:38.503Z,65.10
2018-11-03T16:05:06.191Z,65.20
2018-11-03T16:07:34.467Z,65.40
2018-11-03T16:10:02.289Z,65.80
2018-11-03T16:12:29.892Z,65.60
2018-11-03T16:14:58.599Z,66.00
2018-11-03T16:17:26.566Z,66.00
2018-11-03T16:19:54.596Z,66.60
2018-11-03T16:22:22.328Z,66.60
2018-11-03T16:24:55.394Z,66.70
2018-11-03T16:27:22.939Z,66.60
2018-11-03T16:29:55.359Z,66.80
2018-11-03T16:32:23.864Z,66.90
2018-11-03T16:34:51.744Z,67.30
2018-11-03T16:37:20.819Z,67.10
2018-11-03T16:39:51.211Z,67.60
2018-11-03T16:42:18.707Z,67.50
2018-11-03T16:44:46.227Z,67.10
2018-11-03T16:47:13.872Z,67.60
2018-11-03T16:49:41.951Z,67.60
2018-11-03T16:52:09.505Z,67.70
2018-11-03T16:54:39.102Z,68.00
2018-11-03T16:57:08.039Z,68.10
2018-11-03T16:59:36.626Z,68.80
2018-11-03T17:02:05.634Z,68.20
2018-11-03T17:04:33.277Z,68.10
2018-11-03T17:07:05.014Z,68.50
2018-11-03T17:09:35.585Z,68.60
2018-11-03T17:12:12.384Z,68.90
2018-11-03T17:14:40.083Z,69.20
2018-11-03T17:17:07.674Z,70.20
2018-11-03T17:19:35.990Z,70.50
2018-11-03T17:22:04.963Z,70.40
2018-11-03T17:24:32.709Z,70.60
2018-11-03T17:27:01.984Z,70.70
2018-11-03T17:29:29.537Z,70.20
2018-11-03T17:31:57.911Z,70.60
2018-11-03T17:34:30.402Z,70.40
2018-11-03T17:36:59.673Z,70.00
2018-11-03T17:39:27.405Z,70.40
2018-11-03T17:41:56.148Z,70.70
2018-11-03T17:44:25.930Z,70.50
2018-11-03T17:46:54.208Z,70.60
2018-11-03T17:49:21.756Z,70.40
2018-11-03T17:51:52.243Z,70.40
2018-11-03T17:54:48.189Z,70.40
2018-11-03T17:57:16.578Z,70.70
2018-11-03T17:59:44.231Z,70.90
2018-11-03T18:02:11.881Z,70.80
2018-11-03T18:04:40.529Z,70.80
2018-11-03T18:07:13.271Z,70.70
2018-11-03T18:09:41.088Z,70.80
2018-11-03T18:12:09.248Z,70.90
2018-11-03T18:14:37.071Z,70.90
2018-11-03T18:17:09.352Z,70.90
2018-11-03T18:19:37.607Z,71.10
2018-11-03T18:22:10.992Z,71.20
2018-11-03T18:24:39.395Z,71.30
2018-11-03T18:27:07.329Z,71.20
2018-11-03T18:29:35.417Z,71.30
2018-11-03T18:32:11.893Z,71.40
2018-11-03T18:34:39.898Z,71.60
2018-11-03T18:37:08.375Z,71.30
2018-11-03T18:39:36.393Z,71.60
2018-11-03T18:42:12.565Z,71.90
2018-11-03T18:44:44.642Z,71.90
2018-11-03T18:47:13.112Z,72.00
2018-11-03T18:49:40.820Z,72.10
2018-11-03T18:52:12.096Z,72.00
2018-11-03T18:54:44.001Z,72.10
2018-11-03T18:57:13.084Z,72.50
2018-11-03T18:59:40.632Z,72.40
2018-11-03T19:02:08.940Z,72.10
2018-11-03T19:04:37.216Z,72.30
2018-11-03T19:07:06.491Z,72.40
2018-11-03T19:09:34.456Z,72.40
2018-11-03T19:12:07.194Z,72.40
2018-11-03T19:14:35.778Z,72.30
2018-11-03T19:17:03.522Z,72.40
2018-11-03T19:19:35.705Z,72.30
2018-11-03T19:22:03.880Z,72.30
2018-11-03T19:24:33.420Z,72.50
2018-11-03T19:27:01.463Z,72.40
2018-11-03T19:29:29.801Z,72.50
2018-11-03T19:31:57.982Z,72.40
2018-11-03T19:34:29.850Z,72.40
2018-11-03T19:36:58.227Z,72.40
2018-11-03T19:39:30.279Z,72.50
2018-11-03T19:42:01.404Z,72.50
2018-11-03T19:44:34.223Z,72.50
2018-11-03T19:47:03.215Z,72.60
2018-11-03T19:52:08.829Z,72.60
2018-11-03T19:54:36.786Z,72.50
2018-11-03T19:57:05.345Z,72.50
2018-11-03T19:59:33.378Z,72.50
2018-11-03T20:02:05.811Z,72.60
2018-11-03T20:04:33.391Z,72.50
2018-11-03T20:07:09.488Z,72.60
2018-11-03T20:09:41.650Z,73.30
2018-11-03T20:12:13.961Z,72.60
2018-11-03T20:14:41.692Z,72.70
2018-11-03T20:17:10.076Z,72.70
2018-11-03T20:19:38.208Z,72.60
2018-11-03T20:22:11.252Z,72.70
2018-11-03T20:24:39.465Z,72.60
2018-11-03T20:27:07.383Z,72.60
2018-11-03T20:29:40.309Z,72.70
2018-11-03T20:32:07.827Z,72.80
2018-11-03T20:34:37.602Z,72.70
2018-11-03T20:37:06.488Z,72.70
2018-11-03T20:39:41.633Z,72.80
2018-11-03T20:42:10.631Z,72.70
2018-11-03T20:44:43.865Z,72.80
2018-11-03T20:47:11.943Z,73.00
2018-11-03T20:49:39.723Z,72.80
2018-11-03T20:52:07.400Z,72.80
2018-11-03T20:54:35.934Z,72.80
2018-11-03T20:57:04.114Z,72.70
2018-11-03T20:59:31.792Z,72.70
2018-11-03T21:02:00.321Z,71.90
2018-11-03T21:04:28.361Z,72.90
2018-11-03T21:06:56.209Z,72.70
2018-11-03T21:09:24.866Z,72.80
2018-11-03T21:11:53.576Z,72.70
2018-11-03T21:14:21.504Z,72.70
2018-11-03T21:16:53.620Z,72.70
2018-11-03T21:19:21.820Z,71.80
2018-11-03T21:21:50.509Z,71.80
2018-11-03T21:24:19.807Z,71.80
2018-11-03T21:26:49.752Z,71.80
2018-11-03T21:29:24.602Z,71.70
2018-11-03T21:31:53.664Z,71.70
2018-11-03T21:34:22.409Z,72.70
2018-11-03T21:36:51.124Z,72.70
2018-11-03T21:39:18.907Z,72.70
2018-11-03T21:41:47.535Z,71.70
2018-11-03T21:44:16.031Z,71.60
2018-11-03T21:46:43.612Z,72.60
2018-11-03T21:49:10.995Z,72.80
2018-11-03T21:51:38.701Z,72.70
2018-11-03T21:54:06.221Z,72.90
2018-11-03T21:56:33.685Z,71.80
2018-11-03T21:59:01.258Z,71.60
2018-11-03T22:01:28.824Z,71.60
2018-11-03T22:03:56.310Z,71.60
2018-11-03T22:06:23.829Z,71.80
2018-11-03T22:08:53.591Z,71.90
2018-11-03T22:11:21.067Z,71.70
2018-11-03T22:13:48.553Z,71.80
2018-11-03T22:16:16.050Z,71.70
2018-11-03T22:18:45.355Z,71.50
2018-11-03T22:21:13.876Z,71.80
2018-11-03T22:23:43.640Z,71.90
2018-11-03T22:26:12.344Z,71.70
2018-11-03T22:28:40.915Z,71.70
2018-11-03T22:31:08.470Z,71.80
2018-11-03T22:33:36.411Z,71.80
2018-11-03T22:36:04.794Z,71.90
2018-11-03T22:38:32.283Z,71.90
2018-11-03T22:40:59.791Z,71.90
2018-11-03T22:43:27.395Z,72.00
2018-11-03T22:45:55.053Z,72.00
2018-11-03T22:48:22.482Z,72.00
2018-11-03T22:50:50.014Z,71.90
2018-11-03T22:53:17.514Z,72.00
2018-11-03T22:55:45.118Z,73.10
2018-11-03T22:58:12.518Z,72.20
2018-11-03T23:00:45.655Z,72.20
2018-11-03T23:03:13.101Z,72.30
2018-11-03T23:05:40.508Z,73.30
2018-11-03T23:08:08.010Z,73.40
2018-11-03T23:10:35.415Z,73.40
2018-11-03T23:13:02.922Z,73.50
2018-11-03T23:15:30.332Z,73.70
2018-11-03T23:17:58.479Z,73.70
2018-11-03T23:20:25.914Z,73.80
2018-11-03T23:22:53.374Z,73.70
2018-11-03T23:25:20.844Z,73.70
2018-11-03T23:27:48.304Z,73.90
2018-11-03T23:30:15.905Z,73.80
2018-11-03T23:32:43.461Z,74.00
2018-11-03T23:35:12.559Z,74.00
2018-11-03T23:37:40.126Z,74.00
2018-11-03T23:40:08.358Z,73.90
2018-11-03T23:42:35.856Z,73.90
2018-11-03T23:45:03.911Z,73.90
2018-11-03T23:47:31.418Z,74.10
2018-11-03T23:49:59.226Z,73.90
2018-11-03T23:52:33.714Z,74.10
2018-11-03T23:55:02.239Z,74.00
2018-11-03T23:57:29.961Z,74.10
2018-11-03T23:59:57.458Z,74.10
